Time;durP1;ratioP1;P1;durP2;ratioP2;P2;SDS_P1;SDS_P2;PMS_P1;PMS_P2;Temp;Humidity;BMP_temperature;BMP_pressure;BME280_temperature;BME280_humidity;BME280_pressure;Samples;Min_cycle;Max_cycle;Signal;HPM_P1;HPM_P2
2023/05/22 00:01:36;;;;;;;85.68;30.85;;;;;;;;;;5042760;28;20077;-82
2023/05/22 00:04:03;;;;;;;185.43;68.45;;;;;;;;;;5028730;28;20060;-81
2023/05/22 00:06:29;;;;;;;29.58;16.00;;;;;;;;;;5048549;28;20048;-82
2023/05/22 00:08:55;;;;;;;58.53;26.40;;;;;;;;;;5050637;28;20037;-82
2023/05/22 00:11:21;;;;;;;48.40;20.63;;;;;;;;;;5035889;28;20042;-82
2023/05/22 00:13:47;;;;;;;74.28;31.33;;;;;;;;;;5053265;28;20064;-81
2023/05/22 00:16:13;;;;;;;279.83;102.15;;;;;;;;;;5048386;28;20045;-81
2023/05/22 00:18:43;;;;;;;78.72;31.35;;;;;;;;;;5051684;28;20052;-83
2023/05/22 00:21:09;;;;;;;182.63;66.85;;;;;;;;;;5057086;28;20081;-83
2023/05/22 00:23:35;;;;;;;132.77;52.38;;;;;;;;;;5057144;28;20067;-84
2023/05/22 00:26:01;;;;;;;56.53;24.98;;;;;;;;;;5023524;28;20040;-84
2023/05/22 00:28:28;;;;;;;73.63;30.42;;;;;;;;;;5039984;28;20093;-81
2023/05/22 00:30:54;;;;;;;51.30;24.88;;;;;;;;;;5160982;22;20033;-82
2023/05/22 00:33:20;;;;;;;59.63;26.75;;;;;;;;;;5076203;28;20044;-83
2023/05/22 00:35:46;;;;;;;59.30;27.77;;;;;;;;;;5076383;28;20067;-82
2023/05/22 00:38:25;;;;;;;66.45;30.40;;;;;;;;;;5075420;28;20044;-83
2023/05/22 00:40:51;;;;;;;56.83;29.23;;;;;;;;;;5076558;28;20056;-83
2023/05/22 00:43:44;;;;;;;81.57;38.72;;;;;;;;;;5086907;22;20092;31
2023/05/22 00:46:11;;;;;;;125.43;52.90;;;;;;;;;;5034270;28;20092;-82
2023/05/22 00:48:37;;;;;;;146.77;58.53;;;;;;;;;;5062526;22;20041;-81
2023/05/22 00:51:03;;;;;;;106.22;45.95;;;;;;;;;;5059797;28;20021;-80
2023/05/22 00:53:29;;;;;;;81.57;37.22;;;;;;;;;;5058795;28;20041;-82
2023/05/22 00:55:56;;;;;;;56.75;29.45;;;;;;;;;;5075902;28;20040;-85
2023/05/22 00:58:21;;;;;;;46.15;27.70;;;;;;;;;;5057571;28;20044;-81
2023/05/22 01:00:48;;;;;;;51.70;27.10;;;;;;;;;;5022365;28;20033;-82
2023/05/22 01:03:15;;;;;;;146.85;67.93;;;;;;;;;;5040563;28;20559;-83
2023/05/22 01:05:41;;;;;;;115.35;56.03;;;;;;;;;;5059715;28;20096;-83
2023/05/22 01:08:07;;;;;;;455.48;215.48;;;;;;;;;;5074282;28;20037;-81
2023/05/22 01:10:34;;;;;;;936.33;505.48;;;;;;;;;;5075571;28;20166;-84
2023/05/22 01:13:00;;;;;;;296.98;162.65;;;;;;;;;;5058034;28;20049;-82
2023/05/22 01:15:46;;;;;;;635.40;359.65;;;;;;;;;;5073839;28;20065;-82
2023/05/22 01:18:18;;;;;;;40.17;20.25;;;;;;;;;;5046712;28;20070;-84
2023/05/22 01:20:48;;;;;;;13.15;11.85;;;;;;;;;;5050832;28;20048;-82
2023/05/22 01:23:17;;;;;;;10.32;9.43;;;;;;;;;;5067150;28;20053;-81
2023/05/22 01:25:44;;;;;;;26.70;16.70;;;;;;;;;;5065836;28;20041;-81
2023/05/22 01:28:10;;;;;;;43.70;19.77;;;;;;;;;;5044000;28;20049;-82
2023/05/22 01:30:42;;;;;;;36.92;18.00;;;;;;;;;;5043962;28;20040;-80
2023/05/22 01:33:08;;;;;;;42.80;18.83;;;;;;;;;;5051167;28;20053;-84
2023/05/22 01:35:35;;;;;;;46.78;20.05;;;;;;;;;;5224402;22;20036;-79
2023/05/22 01:38:01;;;;;;;39.22;20.05;;;;;;;;;;5262015;22;20048;-84
2023/05/22 01:40:27;;;;;;;48.42;26.65;;;;;;;;;;5272959;22;20101;-83
2023/05/22 01:42:53;;;;;;;49.67;25.27;;;;;;;;;;5874798;22;20039;-82
2023/05/22 01:45:19;;;;;;;56.58;31.20;;;;;;;;;;5080015;28;20049;-84
2023/05/22 01:47:45;;;;;;;54.40;27.63;;;;;;;;;;5062550;28;20025;-82
2023/05/22 01:50:13;;;;;;;56.13;33.15;;;;;;;;;;5060298;28;20029;-82
2023/05/22 01:52:58;;;;;;;68.57;38.17;;;;;;;;;;5038844;28;20070;-82
2023/05/22 01:55:45;;;;;;;99.57;52.08;;;;;;;;;;5056476;28;20041;-84
2023/05/22 01:58:14;;;;;;;83.65;49.55;;;;;;;;;;5041123;28;20037;-83
2023/05/22 02:00:42;;;;;;;85.35;45.83;;;;;;;;;;5019061;28;20072;-81
2023/05/22 02:03:11;;;;;;;97.47;49.80;;;;;;;;;;5067036;28;20495;-82
2023/05/22 02:05:37;;;;;;;91.30;50.78;;;;;;;;;;5033722;28;20037;-81
2023/05/22 02:08:03;;;;;;;92.38;55.08;;;;;;;;;;5073061;28;20048;-82
2023/05/22 02:10:29;;;;;;;88.78;50.22;;;;;;;;;;5076709;28;20045;-81
2023/05/22 02:12:55;;;;;;;87.72;46.65;;;;;;;;;;5076261;28;20052;-83
2023/05/22 02:15:23;;;;;;;83.60;51.53;;;;;;;;;;5058669;28;20031;-81
2023/05/22 02:17:51;;;;;;;77.75;46.10;;;;;;;;;;5057401;28;20051;-83
2023/05/22 02:20:18;;;;;;;78.07;46.25;;;;;;;;;;5057565;28;20125;-82
2023/05/22 02:22:45;;;;;;;79.47;42.30;;;;;;;;;;5072244;28;20049;-81
2023/05/22 02:25:13;;;;;;;59.03;37.83;;;;;;;;;;5056957;28;20045;-83
2023/05/22 02:27:43;;;;;;;54.15;34.72;;;;;;;;;;5076474;28;20051;-83
2023/05/22 02:30:10;;;;;;;50.97;31.80;;;;;;;;;;5049447;28;20059;-81
2023/05/22 02:32:38;;;;;;;48.22;29.25;;;;;;;;;;4997564;28;20112;-81
2023/05/22 02:35:04;;;;;;;44.05;29.30;;;;;;;;;;5046666;28;20171;-81
2023/05/22 02:37:31;;;;;;;47.70;30.52;;;;;;;;;;5060020;28;20509;-82
2023/05/22 02:39:58;;;;;;;40.53;28.05;;;;;;;;;;5045629;28;20354;-82
2023/05/22 02:42:24;;;;;;;40.05;25.08;;;;;;;;;;5055804;28;20049;-81
2023/05/22 02:44:51;;;;;;;47.05;26.88;;;;;;;;;;5031927;28;20500;-80
2023/05/22 02:47:17;;;;;;;36.78;26.20;;;;;;;;;;5053276;28;20032;-82
2023/05/22 02:49:44;;;;;;;48.05;28.50;;;;;;;;;;5037819;28;20041;-80
2023/05/22 02:52:11;;;;;;;43.60;27.20;;;;;;;;;;5040055;28;20028;-84
2023/05/22 02:54:37;;;;;;;45.03;27.52;;;;;;;;;;5075176;28;20041;-82
2023/05/22 02:57:03;;;;;;;36.55;23.23;;;;;;;;;;5049582;28;20045;-79
2023/05/22 02:59:30;;;;;;;30.48;21.55;;;;;;;;;;5023114;28;20037;-73
2023/05/22 03:01:56;;;;;;;31.52;22.38;;;;;;;;;;5048835;28;20040;-73
2023/05/22 03:04:23;;;;;;;43.47;24.10;;;;;;;;;;5054685;28;20182;-72
2023/05/22 03:06:49;;;;;;;34.38;23.27;;;;;;;;;;5021789;28;20040;-73
2023/05/22 03:09:15;;;;;;;30.98;19.25;;;;;;;;;;5054338;28;20100;-73
2023/05/22 03:11:41;;;;;;;25.80;19.75;;;;;;;;;;5016970;28;20501;-73
2023/05/22 03:14:08;;;;;;;29.45;21.08;;;;;;;;;;5051518;28;20084;-73
2023/05/22 03:16:34;;;;;;;33.25;21.48;;;;;;;;;;5016846;28;20053;-73
2023/05/22 03:19:08;;;;;;;27.70;20.30;;;;;;;;;;5017370;28;20068;-73
2023/05/22 03:21:34;;;;;;;29.42;21.15;;;;;;;;;;5035070;28;20048;-74
2023/05/22 03:24:00;;;;;;;24.48;17.50;;;;;;;;;;5023277;28;20051;-73
2023/05/22 03:26:29;;;;;;;23.30;19.40;;;;;;;;;;5038997;28;20048;-74
2023/05/22 03:28:56;;;;;;;28.90;17.88;;;;;;;;;;5035811;28;20052;-74
2023/05/22 03:31:27;;;;;;;29.48;17.92;;;;;;;;;;5015841;28;20609;-73
2023/05/22 03:34:04;;;;;;;21.38;17.40;;;;;;;;;;5032769;28;20045;-73
2023/05/22 03:36:35;;;;;;;27.73;18.55;;;;;;;;;;5032340;28;20060;-73
2023/05/22 03:39:01;;;;;;;20.33;18.23;;;;;;;;;;5032599;28;20037;-73
2023/05/22 03:41:28;;;;;;;18.30;16.50;;;;;;;;;;5032149;28;20041;-73
2023/05/22 03:43:54;;;;;;;19.17;16.25;;;;;;;;;;5032130;28;20072;-73
2023/05/22 03:46:22;;;;;;;18.25;16.52;;;;;;;;;;5015885;28;20045;-73
2023/05/22 03:48:48;;;;;;;20.63;16.63;;;;;;;;;;4999558;28;20574;-73
2023/05/22 03:51:15;;;;;;;25.85;16.13;;;;;;;;;;5032302;28;20047;-75
2023/05/22 03:53:41;;;;;;;28.15;22.05;;;;;;;;;;5050185;28;20079;-73
2023/05/22 03:56:07;;;;;;;28.35;20.48;;;;;;;;;;5032086;28;20041;-73
2023/05/22 03:58:33;;;;;;;37.55;22.60;;;;;;;;;;5032106;28;20159;-74
2023/05/22 04:00:59;;;;;;;27.92;21.80;;;;;;;;;;5053582;28;20485;-73
2023/05/22 04:03:27;;;;;;;33.05;24.80;;;;;;;;;;5036198;28;20063;-73
2023/05/22 04:05:53;;;;;;;35.50;25.98;;;;;;;;;;5000666;28;20063;-73
2023/05/22 04:08:20;;;;;;;37.60;25.17;;;;;;;;;;5032329;28;20623;-73
2023/05/22 04:10:47;;;;;;;39.45;26.90;;;;;;;;;;5032173;28;20479;-74
2023/05/22 04:13:14;;;;;;;35.90;25.73;;;;;;;;;;5032356;28;20033;-73
2023/05/22 04:15:42;;;;;;;34.42;24.40;;;;;;;;;;5031657;28;20501;-72
2023/05/22 04:18:08;;;;;;;29.70;22.55;;;;;;;;;;5032297;28;20135;-74
2023/05/22 04:20:34;;;;;;;24.48;21.60;;;;;;;;;;5049665;28;20040;-74
2023/05/22 04:23:00;;;;;;;32.05;25.38;;;;;;;;;;5031864;28;20070;-73
2023/05/22 04:25:26;;;;;;;32.45;26.40;;;;;;;;;;5012437;28;20357;-75
2023/05/22 04:27:52;;;;;;;40.83;25.05;;;;;;;;;;5045108;28;20132;-74
2023/05/22 04:30:18;;;;;;;32.05;25.10;;;;;;;;;;5049973;28;20037;-73
2023/05/22 04:32:44;;;;;;;25.80;21.80;;;;;;;;;;5035952;28;20478;-73
2023/05/22 04:35:17;;;;;;;27.33;21.60;;;;;;;;;;5014655;28;20040;-74
2023/05/22 04:37:44;;;;;;;30.63;22.52;;;;;;;;;;5049557;28;20076;-73
2023/05/22 04:40:10;;;;;;;32.00;24.65;;;;;;;;;;5052374;28;20037;-72
2023/05/22 04:42:39;;;;;;;23.90;19.13;;;;;;;;;;5034502;28;20040;-72
2023/05/22 04:45:06;;;;;;;25.73;20.70;;;;;;;;;;5052880;28;20180;-72
2023/05/22 04:47:32;;;;;;;27.98;22.60;;;;;;;;;;5034872;28;20037;-72
2023/05/22 04:50:03;;;;;;;24.25;21.05;;;;;;;;;;5035381;28;20531;-73
2023/05/22 04:52:29;;;;;;;32.58;21.48;;;;;;;;;;5035406;28;20398;-72
2023/05/22 04:54:55;;;;;;;25.77;20.25;;;;;;;;;;5053420;28;20532;-73
2023/05/22 04:57:24;;;;;;;29.40;23.48;;;;;;;;;;5035033;28;20041;-73
2023/05/22 04:59:51;;;;;;;27.55;22.65;;;;;;;;;;5035511;28;20139;-73
2023/05/22 05:02:18;;;;;;;35.17;25.40;;;;;;;;;;5035329;28;20481;-74
2023/05/22 05:04:45;;;;;;;32.95;23.00;;;;;;;;;;5035228;28;20113;-72
2023/05/22 05:07:12;;;;;;;36.05;25.50;;;;;;;;;;5035078;28;20033;-77
2023/05/22 05:09:38;;;;;;;34.55;25.20;;;;;;;;;;5018651;28;20048;-73
2023/05/22 05:12:05;;;;;;;30.27;23.17;;;;;;;;;;5018558;28;20052;-73
2023/05/22 05:14:31;;;;;;;28.33;23.05;;;;;;;;;;5002314;28;20041;-73
2023/05/22 05:16:57;;;;;;;30.42;24.38;;;;;;;;;;5018545;28;20479;-73
2023/05/22 05:19:24;;;;;;;32.00;25.58;;;;;;;;;;5052675;28;20136;-73
2023/05/22 05:21:51;;;;;;;31.42;26.10;;;;;;;;;;5035033;28;20083;-72
2023/05/22 05:24:17;;;;;;;29.92;24.10;;;;;;;;;;5030034;28;20057;-71
2023/05/22 05:26:44;;;;;;;26.25;22.25;;;;;;;;;;5034070;28;20107;-72
2023/05/22 05:29:11;;;;;;;26.58;22.38;;;;;;;;;;5033739;28;20048;-72
2023/05/22 05:31:43;;;;;;;24.98;19.70;;;;;;;;;;5033750;28;20052;-72
2023/05/22 05:34:48;;;;;;;34.20;23.52;;;;;;;;;;5036594;28;20119;-71
2023/05/22 05:37:32;;;;;;;29.00;24.00;;;;;;;;;;5036436;28;20049;-69
2023/05/22 05:40:05;;;;;;;30.52;24.08;;;;;;;;;;5017959;28;20385;-71
2023/05/22 05:42:33;;;;;;;27.88;23.05;;;;;;;;;;5035782;28;20049;-71
2023/05/22 05:45:01;;;;;;;26.40;22.38;;;;;;;;;;5033730;28;20064;-70
2023/05/22 05:47:31;;;;;;;25.23;21.73;;;;;;;;;;5051581;28;20036;-70
2023/05/22 05:49:57;;;;;;;24.48;21.83;;;;;;;;;;5016522;28;20111;-70
2023/05/22 05:52:26;;;;;;;26.52;22.92;;;;;;;;;;5033455;28;20064;-70
2023/05/22 05:54:52;;;;;;;30.38;25.83;;;;;;;;;;5033850;28;20045;-70
2023/05/22 05:57:22;;;;;;;30.45;25.73;;;;;;;;;;5033698;28;20103;-72
2023/05/22 05:59:49;;;;;;;30.27;24.60;;;;;;;;;;5033701;28;20067;-71
2023/05/22 06:02:40;;;;;;;26.45;23.15;;;;;;;;;;5037070;28;20420;-71
2023/05/22 06:05:17;;;;;;;28.25;25.05;;;;;;;;;;5033554;28;20547;-71
2023/05/22 06:07:44;;;;;;;24.70;21.77;;;;;;;;;;5016984;28;20068;-71
2023/05/22 06:10:10;;;;;;;30.83;24.58;;;;;;;;;;5033728;28;20049;-71
2023/05/22 06:12:57;;;;;;;25.65;22.63;;;;;;;;;;5050546;28;20048;-71
2023/05/22 06:15:24;;;;;;;28.48;23.33;;;;;;;;;;5016513;28;20045;-71
2023/05/22 06:17:50;;;;;;;29.92;22.98;;;;;;;;;;5061262;28;20045;-70
2023/05/22 06:20:16;;;;;;;27.00;23.02;;;;;;;;;;5035883;28;20048;-70
2023/05/22 06:22:42;;;;;;;27.08;21.85;;;;;;;;;;5049212;28;20102;-69
2023/05/22 06:25:09;;;;;;;32.20;25.63;;;;;;;;;;5034726;28;20119;-70
2023/05/22 06:27:35;;;;;;;28.80;22.95;;;;;;;;;;5000541;28;20045;-68
2023/05/22 06:30:03;;;;;;;27.42;22.15;;;;;;;;;;5051860;28;20402;-68
2023/05/22 06:32:33;;;;;;;26.83;23.67;;;;;;;;;;5052621;28;20052;-71
2023/05/22 06:35:01;;;;;;;25.52;22.40;;;;;;;;;;5053018;28;20075;-69
2023/05/22 06:37:34;;;;;;;27.30;24.50;;;;;;;;;;5035200;28;20064;-69
2023/05/22 06:40:01;;;;;;;26.17;23.35;;;;;;;;;;5032991;28;20646;-69
2023/05/22 06:42:38;;;;;;;24.58;22.08;;;;;;;;;;5032916;28;20049;-69
2023/05/22 06:45:21;;;;;;;26.00;23.40;;;;;;;;;;5050765;28;20486;-71
2023/05/22 06:48:03;;;;;;;24.60;21.90;;;;;;;;;;5047792;28;20458;-71
2023/05/22 06:50:33;;;;;;;22.48;20.17;;;;;;;;;;5014313;28;20056;-69
2023/05/22 06:52:59;;;;;;;22.77;20.40;;;;;;;;;;5031957;28;20436;-71
2023/05/22 06:55:25;;;;;;;22.67;20.45;;;;;;;;;;5032292;28;20468;-69
2023/05/22 06:58:02;;;;;;;24.30;21.95;;;;;;;;;;5032568;28;20063;-69
2023/05/22 07:00:30;;;;;;;18.77;17.13;;;;;;;;;;5041500;28;20132;-69
2023/05/22 07:03:20;;;;;;;19.50;17.77;;;;;;;;;;5070421;28;20056;-70
2023/05/22 07:06:06;;;;;;;16.58;15.07;;;;;;;;;;5070387;28;20094;-69
2023/05/22 07:08:32;;;;;;;17.30;15.80;;;;;;;;;;5024887;28;20488;-70
2023/05/22 07:11:00;;;;;;;22.65;17.85;;;;;;;;;;5032514;28;20049;-71
2023/05/22 07:13:30;;;;;;;19.52;16.75;;;;;;;;;;5016207;28;20045;-70
2023/05/22 07:15:56;;;;;;;21.83;18.90;;;;;;;;;;5053480;28;20037;-71
2023/05/22 07:18:23;;;;;;;15.65;14.38;;;;;;;;;;5029473;28;20296;-72
2023/05/22 07:20:49;;;;;;;15.40;14.13;;;;;;;;;;5012823;28;20044;-72
2023/05/22 07:23:17;;;;;;;13.68;12.68;;;;;;;;;;5028173;28;20544;-72
2023/05/22 07:25:43;;;;;;;14.82;13.48;;;;;;;;;;5031009;28;20037;-73
2023/05/22 07:28:11;;;;;;;13.13;12.13;;;;;;;;;;5031509;28;20044;-73
2023/05/22 07:30:47;;;;;;;14.50;13.40;;;;;;;;;;5016706;28;20041;-71
2023/05/22 07:33:14;;;;;;;12.25;11.23;;;;;;;;;;5031454;28;20417;-71
2023/05/22 07:35:42;;;;;;;17.13;15.63;;;;;;;;;;5015280;28;20032;-71
2023/05/22 07:38:07;;;;;;;14.60;13.40;;;;;;;;;;5035408;28;20036;-70
2023/05/22 07:40:34;;;;;;;18.80;17.00;;;;;;;;;;5031319;28;20505;-71
2023/05/22 07:43:00;;;;;;;17.40;15.68;;;;;;;;;;5031108;28;20057;-72
2023/05/22 07:45:26;;;;;;;15.32;13.93;;;;;;;;;;5031531;28;20433;-72
2023/05/22 07:47:55;;;;;;;15.70;14.30;;;;;;;;;;5031146;28;20107;-72
2023/05/22 07:50:20;;;;;;;13.07;11.85;;;;;;;;;;5030972;28;20135;-73
2023/05/22 07:52:47;;;;;;;11.90;10.77;;;;;;;;;;5030526;28;20530;-72
2023/05/22 07:55:13;;;;;;;10.90;9.95;;;;;;;;;;5031132;28;20068;-72
2023/05/22 07:57:42;;;;;;;11.52;10.63;;;;;;;;;;5031073;28;20102;-72
2023/05/22 08:00:19;;;;;;;12.40;11.10;;;;;;;;;;5031228;28;20049;-71
2023/05/22 08:02:45;;;;;;;13.02;11.40;;;;;;;;;;5030973;28;20481;-72
2023/05/22 08:05:11;;;;;;;12.48;11.30;;;;;;;;;;5051652;28;20043;-72
2023/05/22 08:07:37;;;;;;;13.30;11.95;;;;;;;;;;5048637;28;20033;-73
2023/05/22 08:10:06;;;;;;;12.48;11.50;;;;;;;;;;5031140;28;20508;-72
2023/05/22 08:12:32;;;;;;;11.38;10.48;;;;;;;;;;5047959;28;20044;-72
2023/05/22 08:14:58;;;;;;;11.30;10.38;;;;;;;;;;5048880;28;20412;-73
2023/05/22 08:17:24;;;;;;;11.93;10.77;;;;;;;;;;5036525;28;20147;-74
2023/05/22 08:19:50;;;;;;;10.18;9.20;;;;;;;;;;5048795;28;20267;-73
2023/05/22 08:22:16;;;;;;;10.68;9.77;;;;;;;;;;5030695;28;20658;-72
2023/05/22 08:24:42;;;;;;;10.77;9.73;;;;;;;;;;5030563;28;20079;-72
2023/05/22 08:27:08;;;;;;;12.00;10.73;;;;;;;;;;5030960;28;20083;-73
2023/05/22 08:29:35;;;;;;;11.20;10.18;;;;;;;;;;5030648;28;20041;-73
2023/05/22 08:32:00;;;;;;;12.75;11.48;;;;;;;;;;5043370;28;20063;-75
2023/05/22 08:34:27;;;;;;;12.27;11.07;;;;;;;;;;5011429;28;20040;-74
2023/05/22 08:36:53;;;;;;;12.07;11.10;;;;;;;;;;5049184;28;20052;-74
2023/05/22 08:39:19;;;;;;;9.25;8.65;;;;;;;;;;5046816;28;20037;-75
2023/05/22 08:41:46;;;;;;;10.85;10.00;;;;;;;;;;5026536;28;20045;-75
2023/05/22 08:44:12;;;;;;;10.00;9.30;;;;;;;;;;5009749;28;20262;-74
2023/05/22 08:46:42;;;;;;;9.98;9.23;;;;;;;;;;5029434;28;20107;-75
2023/05/22 08:49:08;;;;;;;11.45;10.57;;;;;;;;;;5028017;28;20045;-75
2023/05/22 08:51:38;;;;;;;9.95;9.07;;;;;;;;;;5029591;28;20098;-75
2023/05/22 08:54:06;;;;;;;10.50;9.70;;;;;;;;;;5028363;28;20041;-75
2023/05/22 08:56:33;;;;;;;13.57;11.95;;;;;;;;;;5028898;28;20094;-75
2023/05/22 08:58:59;;;;;;;16.83;14.55;;;;;;;;;;5049003;28;20114;-76
2023/05/22 09:01:25;;;;;;;17.63;15.88;;;;;;;;;;5029956;28;20240;-75
2023/05/22 09:03:51;;;;;;;18.23;14.40;;;;;;;;;;5012924;28;20209;-75
2023/05/22 09:06:17;;;;;;;24.65;22.15;;;;;;;;;;5014566;28;20524;-76
2023/05/22 09:08:44;;;;;;;25.77;23.00;;;;;;;;;;5048186;28;20509;-76
2023/05/22 09:11:11;;;;;;;22.20;14.48;;;;;;;;;;5047639;28;20040;-76
2023/05/22 09:13:37;;;;;;;13.80;7.75;;;;;;;;;;5048098;28;20048;-76
2023/05/22 09:16:10;;;;;;;8.93;5.68;;;;;;;;;;5049538;28;20048;-76
2023/05/22 09:18:36;;;;;;;7.00;5.53;;;;;;;;;;5031685;28;20462;-77
2023/05/22 09:21:03;;;;;;;7.05;6.45;;;;;;;;;;5015323;28;20041;-77
2023/05/22 09:23:29;;;;;;;7.93;6.50;;;;;;;;;;5032329;28;20057;-76
2023/05/22 09:25:56;;;;;;;6.82;6.38;;;;;;;;;;5052755;28;20069;-76
2023/05/22 09:28:22;;;;;;;6.75;6.20;;;;;;;;;;5052882;28;20045;-77
2023/05/22 09:30:51;;;;;;;6.72;6.10;;;;;;;;;;5052617;28;20107;-76
2023/05/22 09:33:17;;;;;;;6.65;6.13;;;;;;;;;;5018774;28;20048;-76
2023/05/22 09:35:45;;;;;;;8.40;7.70;;;;;;;;;;5064386;28;20044;-76
2023/05/22 09:38:11;;;;;;;7.50;7.00;;;;;;;;;;5048313;28;20040;-77
2023/05/22 09:40:37;;;;;;;8.02;7.50;;;;;;;;;;5057249;28;20052;-76
2023/05/22 09:43:06;;;;;;;8.00;7.20;;;;;;;;;;5052543;28;20056;-78
2023/05/22 09:45:33;;;;;;;9.45;8.75;;;;;;;;;;5052789;28;20053;-77
2023/05/22 09:47:59;;;;;;;10.23;9.02;;;;;;;;;;5052959;28;20353;-78
2023/05/22 09:50:25;;;;;;;8.98;8.38;;;;;;;;;;5021107;28;20132;-76
2023/05/22 09:52:51;;;;;;;17.80;10.10;;;;;;;;;;5038526;28;20170;-79
2023/05/22 09:55:17;;;;;;;10.05;9.13;;;;;;;;;;5035121;28;20124;-76
2023/05/22 09:57:48;;;;;;;8.68;7.80;;;;;;;;;;5034919;28;20423;-78
2023/05/22 10:00:16;;;;;;;8.27;7.68;;;;;;;;;;5018526;28;20049;-78
2023/05/22 10:03:10;;;;;;;9.90;9.18;;;;;;;;;;5034489;28;20048;-78
2023/05/22 10:05:37;;;;;;;10.70;9.80;;;;;;;;;;5031782;28;20103;-77
2023/05/22 10:08:10;;;;;;;11.15;10.23;;;;;;;;;;5041205;28;20041;-77
2023/05/22 10:10:39;;;;;;;9.93;9.15;;;;;;;;;;5036305;28;20037;-77
2023/05/22 10:13:05;;;;;;;10.90;10.00;;;;;;;;;;5052599;28;20040;-76
2023/05/22 10:15:31;;;;;;;11.13;9.25;;;;;;;;;;5035118;28;20043;-77
2023/05/22 10:17:57;;;;;;;9.93;8.93;;;;;;;;;;5033804;28;20044;-77
2023/05/22 10:20:27;;;;;;;9.93;9.23;;;;;;;;;;5033951;28;20094;-76
2023/05/22 10:22:53;;;;;;;11.40;9.95;;;;;;;;;;5051523;28;20040;-77
2023/05/22 10:25:22;;;;;;;9.60;8.73;;;;;;;;;;5034148;28;20044;-75
2023/05/22 10:27:48;;;;;;;10.50;9.60;;;;;;;;;;5053731;28;20068;-75
2023/05/22 10:30:23;;;;;;;10.10;9.20;;;;;;;;;;5060589;28;20078;-76
2023/05/22 10:33:20;;;;;;;9.93;8.90;;;;;;;;;;5062101;28;20048;-76
2023/05/22 10:35:47;;;;;;;9.45;8.57;;;;;;;;;;5057698;28;20476;-76
2023/05/22 10:38:19;;;;;;;9.80;9.00;;;;;;;;;;5051461;28;20056;-75
2023/05/22 10:40:45;;;;;;;9.70;8.80;;;;;;;;;;5051155;28;20045;-78
2023/05/22 10:43:12;;;;;;;10.10;9.20;;;;;;;;;;5033455;28;20053;-77
2023/05/22 10:45:40;;;;;;;10.02;9.02;;;;;;;;;;5034743;28;20037;-78
2023/05/22 10:48:06;;;;;;;9.40;8.55;;;;;;;;;;5005469;28;20550;-79
2023/05/22 10:50:33;;;;;;;9.55;8.85;;;;;;;;;;5051318;28;20053;-80
2023/05/22 10:53:21;;;;;;;9.18;8.45;;;;;;;;;;5018324;28;20464;-78
2023/05/22 10:55:50;;;;;;;10.80;9.48;;;;;;;;;;5037831;28;20057;-78
2023/05/22 10:58:16;;;;;;;9.52;8.73;;;;;;;;;;5033608;28;20183;-79
2023/05/22 11:00:43;;;;;;;9.18;8.30;;;;;;;;;;5051396;28;20033;-79
2023/05/22 11:03:10;;;;;;;9.50;8.73;;;;;;;;;;5032950;28;20140;-77
2023/05/22 11:05:37;;;;;;;15.13;8.70;;;;;;;;;;5033587;28;20090;-79
2023/05/22 11:08:34;;;;;;;9.45;8.75;;;;;;;;;;5050951;28;20045;-79
2023/05/22 11:11:08;;;;;;;9.85;9.02;;;;;;;;;;5021302;28;20037;-79
2023/05/22 11:13:34;;;;;;;9.10;8.27;;;;;;;;;;5013184;28;20045;-78
2023/05/22 11:16:02;;;;;;;8.68;7.97;;;;;;;;;;5025414;28;20076;-79
2023/05/22 11:18:28;;;;;;;8.20;7.50;;;;;;;;;;5016694;28;20513;-78
2023/05/22 11:20:54;;;;;;;9.48;8.63;;;;;;;;;;5032989;28;20059;-80
2023/05/22 11:23:22;;;;;;;8.48;7.82;;;;;;;;;;5033350;28;20505;-79
2023/05/22 11:25:48;;;;;;;8.38;7.55;;;;;;;;;;5000149;28;20705;-78
2023/05/22 11:28:14;;;;;;;12.75;8.05;;;;;;;;;;5050364;28;20136;-78
2023/05/22 11:30:40;;;;;;;7.97;7.20;;;;;;;;;;5033230;28;20128;-79
2023/05/22 11:33:06;;;;;;;9.38;8.48;;;;;;;;;;5033026;28;20045;-80
2023/05/22 11:35:32;;;;;;;8.88;8.00;;;;;;;;;;5033719;28;20084;-80
2023/05/22 11:37:58;;;;;;;8.23;7.25;;;;;;;;;;5033090;28;20175;-79
2023/05/22 11:40:25;;;;;;;9.27;6.57;;;;;;;;;;5033454;28;20076;-79
2023/05/22 11:42:52;;;;;;;12.40;7.30;;;;;;;;;;5050112;28;20041;-79
2023/05/22 11:45:18;;;;;;;7.10;6.50;;;;;;;;;;5032754;28;20115;-79
2023/05/22 11:47:44;;;;;;;7.20;6.70;;;;;;;;;;5049603;28;20464;-79
2023/05/22 11:50:11;;;;;;;11.88;7.20;;;;;;;;;;5019698;28;20045;-79
2023/05/22 11:52:37;;;;;;;7.88;6.30;;;;;;;;;;5050690;28;20052;-79
2023/05/22 11:55:07;;;;;;;12.10;6.72;;;;;;;;;;5051706;28;20049;-78
2023/05/22 11:57:33;;;;;;;8.33;7.20;;;;;;;;;;5041766;28;20037;-80
2023/05/22 11:59:59;;;;;;;8.43;7.28;;;;;;;;;;5043461;28;20135;-79
2023/05/22 12:02:26;;;;;;;8.75;6.82;;;;;;;;;;5017264;28;20037;-78
2023/05/22 12:04:52;;;;;;;7.70;6.97;;;;;;;;;;5032649;28;20067;-79
2023/05/22 12:07:18;;;;;;;7.70;6.85;;;;;;;;;;5050221;28;20508;-79
2023/05/22 12:09:44;;;;;;;8.55;7.25;;;;;;;;;;5032602;28;20041;-80
2023/05/22 12:12:10;;;;;;;10.50;7.20;;;;;;;;;;5032365;28;20584;-79
2023/05/22 12:14:36;;;;;;;14.52;7.05;;;;;;;;;;5016031;28;20047;-79
2023/05/22 12:17:05;;;;;;;8.93;7.07;;;;;;;;;;5015792;28;20041;-79
2023/05/22 12:19:31;;;;;;;12.73;7.07;;;;;;;;;;5048226;28;20090;-79
2023/05/22 12:21:58;;;;;;;8.32;5.80;;;;;;;;;;5038407;28;20049;-79
2023/05/22 12:24:24;;;;;;;7.13;6.53;;;;;;;;;;5049857;28;20110;-80
2023/05/22 12:26:54;;;;;;;11.45;6.80;;;;;;;;;;5032346;28;20044;-79
2023/05/22 12:29:23;;;;;;;10.48;6.32;;;;;;;;;;5031886;28;20505;-79
2023/05/22 12:31:49;;;;;;;9.02;7.15;;;;;;;;;;5032382;28;20107;-79
2023/05/22 12:34:16;;;;;;;7.97;7.07;;;;;;;;;;5049695;28;20067;-78
2023/05/22 12:36:42;;;;;;;10.23;7.57;;;;;;;;;;5032497;28;20041;-79
2023/05/22 12:39:09;;;;;;;7.93;7.18;;;;;;;;;;5031741;28;20056;-79
2023/05/22 12:41:37;;;;;;;10.75;6.80;;;;;;;;;;5049975;28;20094;-79
2023/05/22 12:44:04;;;;;;;7.47;6.85;;;;;;;;;;5018083;28;20049;-79
2023/05/22 12:46:30;;;;;;;7.72;7.13;;;;;;;;;;4996028;28;20041;-80
2023/05/22 12:48:56;;;;;;;12.02;6.82;;;;;;;;;;5047000;28;20033;-79
2023/05/22 12:51:30;;;;;;;9.85;7.45;;;;;;;;;;5031962;28;20044;-80
2023/05/22 12:53:56;;;;;;;9.68;6.30;;;;;;;;;;5010994;28;20048;-80
2023/05/22 12:56:22;;;;;;;8.40;6.60;;;;;;;;;;5023729;28;20139;-79
2023/05/22 12:58:48;;;;;;;8.73;6.38;;;;;;;;;;5051021;28;20096;-80
2023/05/22 13:01:14;;;;;;;6.68;6.07;;;;;;;;;;5036053;28;20047;-78
2023/05/22 13:03:40;;;;;;;7.43;6.75;;;;;;;;;;5035688;28;20048;-80
2023/05/22 13:06:06;;;;;;;8.70;6.28;;;;;;;;;;5015871;28;20514;-78
2023/05/22 13:08:32;;;;;;;7.47;6.53;;;;;;;;;;5033207;28;20070;-80
2023/05/22 13:10:58;;;;;;;6.93;6.15;;;;;;;;;;5054162;28;20037;-80
2023/05/22 13:13:24;;;;;;;6.70;6.20;;;;;;;;;;5035252;28;20051;-79
2023/05/22 13:15:50;;;;;;;7.53;6.20;;;;;;;;;;5052953;28;20112;-79
2023/05/22 13:18:16;;;;;;;6.30;5.70;;;;;;;;;;5053142;28;20115;-79
2023/05/22 13:20:42;;;;;;;8.88;6.25;;;;;;;;;;5053572;28;20529;-79
2023/05/22 13:23:08;;;;;;;13.07;6.05;;;;;;;;;;5015063;28;20041;-80
2023/05/22 13:25:34;;;;;;;9.50;6.10;;;;;;;;;;5023400;28;20132;-80
2023/05/22 13:28:00;;;;;;;17.63;6.60;;;;;;;;;;5033551;28;20148;-79
2023/05/22 13:30:27;;;;;;;10.82;6.07;;;;;;;;;;4991655;28;20045;-80
2023/05/22 13:32:53;;;;;;;11.90;6.53;;;;;;;;;;4990766;28;20532;-80
2023/05/22 13:35:22;;;;;;;7.15;6.25;;;;;;;;;;5050719;28;20044;-79
2023/05/22 13:37:48;;;;;;;8.05;5.90;;;;;;;;;;5026312;28;20049;-79
2023/05/22 13:40:14;;;;;;;13.20;6.72;;;;;;;;;;5048747;28;20120;-80
2023/05/22 13:42:51;;;;;;;17.10;6.25;;;;;;;;;;5025545;28;20045;-79
2023/05/22 13:48:47;;;;;;;;;;;;;;;;;;5010480;28;20051;-80
2023/05/22 13:51:13;;;;;;;12.43;6.95;;;;;;;;;;5058982;28;19913;-82
2023/05/22 13:53:39;;;;;;;10.02;6.20;;;;;;;;;;5058688;28;20041;-81
2023/05/22 13:56:05;;;;;;;6.93;6.18;;;;;;;;;;5055928;28;20044;-80
2023/05/22 13:58:31;;;;;;;7.70;5.90;;;;;;;;;;5053832;28;20068;-79
2023/05/22 14:00:57;;;;;;;12.68;6.88;;;;;;;;;;5035306;28;20072;-79
2023/05/22 14:03:23;;;;;;;10.80;5.90;;;;;;;;;;5052660;28;20473;-79
2023/05/22 14:05:49;;;;;;;9.70;5.55;;;;;;;;;;5034564;28;20068;-80
2023/05/22 14:08:15;;;;;;;6.97;5.00;;;;;;;;;;5013825;28;20563;-80
2023/05/22 14:10:41;;;;;;;8.25;4.70;;;;;;;;;;5042846;28;20045;-80
2023/05/22 14:13:07;;;;;;;4.68;4.35;;;;;;;;;;5034378;28;20052;-79
2023/05/22 14:15:33;;;;;;;8.95;4.47;;;;;;;;;;5024336;28;20070;-81
2023/05/22 14:17:59;;;;;;;5.57;4.28;;;;;;;;;;5050473;28;20037;-79
2023/05/22 14:20:25;;;;;;;4.65;3.72;;;;;;;;;;5035121;28;20048;-80
2023/05/22 14:22:51;;;;;;;7.90;3.78;;;;;;;;;;5051921;28;20339;-80
2023/05/22 14:25:17;;;;;;;6.88;3.60;;;;;;;;;;4998047;28;20045;-78
2023/05/22 14:27:43;;;;;;;3.83;3.53;;;;;;;;;;5032874;28;20070;-78
2023/05/22 14:30:12;;;;;;;4.50;3.40;;;;;;;;;;5051323;28;20506;-78
2023/05/22 14:32:38;;;;;;;11.35;3.38;;;;;;;;;;5053274;28;20026;-78
2023/05/22 14:35:04;;;;;;;4.72;3.53;;;;;;;;;;5034119;28;20079;-78